createdAt,value
2018-07-03T00:01:17.295Z,20.77
2018-07-03T00:03:47.098Z,20.78
2018-07-03T00:06:16.577Z,20.79
2018-07-03T00:08:46.083Z,20.79
2018-07-03T00:13:44.011Z,20.24
2018-07-03T00:16:17.457Z,19.96
2018-07-03T00:18:47.047Z,19.91
2018-07-03T00:21:16.330Z,19.73
2018-07-03T00:23:46.575Z,19.70
2018-07-03T00:26:15.852Z,19.52
2018-07-03T00:28:45.122Z,19.45
2018-07-03T00:31:14.469Z,19.39
2018-07-03T00:33:43.788Z,19.18
2018-07-03T00:36:13.192Z,18.96
2018-07-03T00:38:42.522Z,18.87
2018-07-03T00:41:11.849Z,18.78
2018-07-03T00:43:41.189Z,18.65
2018-07-03T00:46:10.586Z,18.52
2018-07-03T00:48:40.008Z,18.42
2018-07-03T00:51:09.359Z,18.34
2018-07-03T00:53:38.748Z,18.23
2018-07-03T00:56:08.097Z,18.19
2018-07-03T00:58:37.398Z,18.03
2018-07-03T01:01:06.799Z,17.91
2018-07-03T01:03:36.075Z,17.91
2018-07-03T01:06:05.327Z,17.79
2018-07-03T01:08:34.707Z,17.61
2018-07-03T01:11:03.991Z,17.71
2018-07-03T01:13:33.274Z,17.64
2018-07-03T01:16:02.640Z,17.63
2018-07-03T01:18:31.920Z,17.62
2018-07-03T01:21:01.192Z,17.50
2018-07-03T01:23:30.498Z,17.46
2018-07-03T01:25:59.758Z,17.54
2018-07-03T01:28:29.015Z,17.34
2018-07-03T01:30:58.409Z,17.32
2018-07-03T01:33:27.800Z,17.33
2018-07-03T01:35:57.117Z,17.32
2018-07-03T01:38:26.524Z,17.31
2018-07-03T01:40:55.800Z,17.25
2018-07-03T01:43:25.088Z,17.33
2018-07-03T01:45:54.425Z,17.21
2018-07-03T01:48:23.707Z,17.13
2018-07-03T01:50:53.012Z,17.04
2018-07-03T01:53:22.401Z,16.97
2018-07-03T01:55:51.727Z,16.87
2018-07-03T01:58:21.332Z,16.84
2018-07-03T02:00:50.716Z,16.83
2018-07-03T02:03:20.071Z,16.70
2018-07-03T02:05:49.342Z,16.54
2018-07-03T02:08:18.693Z,16.44
2018-07-03T02:10:48.115Z,16.39
2018-07-03T02:13:17.537Z,16.44
2018-07-03T02:15:47.081Z,16.46
2018-07-03T02:18:16.374Z,16.26
2018-07-03T02:20:45.736Z,16.15
2018-07-03T02:23:15.071Z,16.14
2018-07-03T02:25:44.363Z,16.11
2018-07-03T02:28:13.662Z,16.19
2018-07-03T02:30:43.023Z,16.13
2018-07-03T02:33:12.322Z,16.21
2018-07-03T02:35:41.596Z,16.19
2018-07-03T02:38:11.022Z,16.04
2018-07-03T02:40:40.093Z,15.93
2018-07-03T02:43:09.505Z,15.77
2018-07-03T02:45:38.868Z,15.78
2018-07-03T02:48:08.185Z,15.76
2018-07-03T02:50:37.526Z,15.82
2018-07-03T02:53:07.031Z,15.78
2018-07-03T02:55:36.350Z,15.73
2018-07-03T02:58:05.648Z,15.72
2018-07-03T03:00:35.447Z,15.57
2018-07-03T03:03:04.751Z,15.61
2018-07-03T03:05:34.092Z,15.59
2018-07-03T03:08:03.551Z,15.79
2018-07-03T03:10:32.970Z,15.68
2018-07-03T03:13:02.472Z,15.72
2018-07-03T03:15:32.020Z,15.85
2018-07-03T03:18:01.427Z,15.86
2018-07-03T03:20:30.704Z,15.82
2018-07-03T03:23:00.457Z,15.66
2018-07-03T03:25:29.793Z,15.56
2018-07-03T03:27:59.152Z,15.33
2018-07-03T03:30:28.451Z,15.44
2018-07-03T03:32:57.785Z,15.60
2018-07-03T03:35:27.110Z,15.70
2018-07-03T03:37:56.402Z,15.81
2018-07-03T03:40:25.687Z,15.86
2018-07-03T03:42:55.104Z,15.77
2018-07-03T03:45:24.700Z,15.70
2018-07-03T03:47:54.049Z,15.83
2018-07-03T03:50:23.371Z,16.03
2018-07-03T03:52:52.670Z,15.91
2018-07-03T03:55:22.184Z,15.94
2018-07-03T03:57:51.911Z,15.95
2018-07-03T04:00:21.476Z,15.98
2018-07-03T04:02:50.955Z,16.02
2018-07-03T04:05:20.028Z,16.17
2018-07-03T04:07:49.742Z,16.00
2018-07-03T04:10:19.023Z,15.95
2018-07-03T04:12:48.263Z,15.88
2018-07-03T04:15:17.564Z,15.82
2018-07-03T04:17:46.884Z,15.95
2018-07-03T04:20:16.166Z,16.25
2018-07-03T04:22:45.479Z,16.37
2018-07-03T04:25:14.841Z,16.51
2018-07-03T04:27:44.129Z,16.59
2018-07-03T04:30:13.699Z,16.67
2018-07-03T04:32:42.980Z,16.77
2018-07-03T04:35:12.261Z,16.87
2018-07-03T04:37:41.558Z,16.86
2018-07-03T04:40:10.834Z,16.93
2018-07-03T04:42:40.171Z,17.25
2018-07-03T04:45:09.479Z,17.42
2018-07-03T04:47:38.732Z,17.63
2018-07-03T04:50:07.836Z,17.62
2018-07-03T04:52:37.373Z,17.64
2018-07-03T04:55:06.733Z,17.68
2018-07-03T04:57:36.063Z,17.79
2018-07-03T05:00:05.568Z,18.11
2018-07-03T05:02:34.896Z,18.35
2018-07-03T05:05:04.363Z,18.55
2018-07-03T05:07:33.685Z,18.72
2018-07-03T05:10:03.191Z,18.79
2018-07-03T05:12:32.903Z,18.99
2018-07-03T05:15:02.625Z,19.04
2018-07-03T05:17:32.026Z,18.97
2018-07-03T05:20:01.311Z,19.07
2018-07-03T05:22:30.736Z,18.96
2018-07-03T05:25:00.121Z,19.14
2018-07-03T05:27:29.399Z,19.36
2018-07-03T05:29:58.753Z,19.77
2018-07-03T05:32:27.829Z,20.00
2018-07-03T05:34:57.101Z,20.28
2018-07-03T05:37:26.606Z,20.36
2018-07-03T05:39:56.089Z,20.72
2018-07-03T05:42:25.404Z,20.86
2018-07-03T05:44:54.741Z,21.09
2018-07-03T05:47:24.041Z,21.26
2018-07-03T05:49:53.407Z,21.36
2018-07-03T05:52:24.162Z,21.61
2018-07-03T05:54:53.627Z,21.67
2018-07-03T05:57:23.026Z,21.75
2018-07-03T05:59:52.478Z,21.90
2018-07-03T06:02:21.869Z,22.07
2018-07-03T06:04:51.539Z,22.05
2018-07-03T06:07:21.008Z,22.10
2018-07-03T06:09:50.926Z,22.26
2018-07-03T06:12:20.205Z,22.31
2018-07-03T06:14:49.599Z,22.18
2018-07-03T06:17:18.964Z,22.17
2018-07-03T06:19:48.261Z,22.32
2018-07-03T06:22:17.677Z,22.51
2018-07-03T06:24:46.954Z,22.77
2018-07-03T06:27:16.431Z,22.84
2018-07-03T06:29:45.844Z,22.86
2018-07-03T06:32:15.172Z,22.92
2018-07-03T06:34:44.717Z,23.09
2018-07-03T06:37:13.903Z,23.21
2018-07-03T06:39:43.201Z,23.34
2018-07-03T06:42:12.573Z,23.46
2018-07-03T06:44:42.140Z,23.44
2018-07-03T06:47:11.452Z,23.41
2018-07-03T06:49:40.916Z,23.57
2018-07-03T06:52:10.315Z,23.66
2018-07-03T06:54:39.743Z,23.61
2018-07-03T06:57:09.048Z,23.78
2018-07-03T06:59:38.383Z,23.69
2018-07-03T07:02:07.790Z,23.84
2018-07-03T07:04:37.104Z,23.88
2018-07-03T07:07:07.217Z,23.77
2018-07-03T07:09:36.646Z,23.82
2018-07-03T07:12:06.004Z,24.00
2018-07-03T07:14:35.349Z,24.17
2018-07-03T07:17:05.468Z,24.52
2018-07-03T07:19:34.738Z,24.54
2018-07-03T07:22:04.100Z,24.53
2018-07-03T07:24:33.473Z,24.75
2018-07-03T07:27:02.846Z,24.80
2018-07-03T07:29:32.457Z,24.86
2018-07-03T07:32:02.068Z,24.91
2018-07-03T07:34:31.374Z,25.03
2018-07-03T07:37:00.447Z,25.26
2018-07-03T07:39:29.854Z,25.40
2018-07-03T07:41:59.183Z,25.61
2018-07-03T07:44:28.545Z,25.58
2018-07-03T07:46:57.861Z,25.41
2018-07-03T07:49:27.188Z,25.76
2018-07-03T07:51:56.823Z,25.89
2018-07-03T07:54:26.183Z,25.91
2018-07-03T07:56:55.516Z,25.66
2018-07-03T07:59:24.842Z,25.90
2018-07-03T08:01:54.404Z,25.91
2018-07-03T08:04:23.730Z,26.03
2018-07-03T08:06:53.067Z,26.24
2018-07-03T08:09:22.396Z,26.57
2018-07-03T08:11:51.785Z,26.68
2018-07-03T08:14:21.259Z,26.80
2018-07-03T08:16:50.724Z,26.81
2018-07-03T08:19:20.279Z,26.97
2018-07-03T08:21:49.693Z,26.80
2018-07-03T08:24:19.058Z,27.00
2018-07-03T08:26:48.710Z,27.20
2018-07-03T08:29:18.071Z,27.27
2018-07-03T08:31:47.365Z,27.31
2018-07-03T08:34:16.774Z,27.51
2018-07-03T08:36:46.439Z,27.68
2018-07-03T08:39:15.754Z,27.47
2018-07-03T08:41:45.200Z,27.63
2018-07-03T08:44:14.514Z,27.63
2018-07-03T08:46:43.820Z,27.93
2018-07-03T08:49:13.197Z,27.38
2018-07-03T08:51:42.609Z,27.61
2018-07-03T08:54:11.749Z,27.81
2018-07-03T08:56:41.063Z,27.86
2018-07-03T08:59:10.578Z,28.18
2018-07-03T09:01:40.050Z,28.26
2018-07-03T09:04:09.391Z,28.08
2018-07-03T09:06:39.324Z,28.25
2018-07-03T09:09:10.394Z,28.10
2018-07-03T09:11:40.397Z,28.26
2018-07-03T09:14:09.852Z,28.62
2018-07-03T09:16:39.569Z,28.65
2018-07-03T09:19:09.649Z,28.94
2018-07-03T09:21:38.982Z,28.87
2018-07-03T09:24:08.344Z,29.12
2018-07-03T09:26:37.711Z,29.06
2018-07-03T09:29:07.009Z,29.04
2018-07-03T09:31:36.310Z,29.18
2018-07-03T09:34:05.816Z,29.35
2018-07-03T09:36:35.240Z,29.30
2018-07-03T09:39:08.414Z,29.01
2018-07-03T09:41:38.638Z,29.15
2018-07-03T09:44:08.112Z,29.33
2018-07-03T09:46:37.455Z,29.63
2018-07-03T09:49:07.268Z,29.80
2018-07-03T09:51:36.621Z,29.82
2018-07-03T09:54:06.329Z,29.93
2018-07-03T09:56:35.658Z,29.93
2018-07-03T09:59:05.060Z,29.69
2018-07-03T10:01:34.623Z,29.86
2018-07-03T10:04:04.014Z,29.96
2018-07-03T10:06:33.314Z,30.24
2018-07-03T10:09:02.883Z,30.18
2018-07-03T10:11:32.210Z,30.22
2018-07-03T10:14:01.569Z,30.07
2018-07-03T10:16:30.931Z,30.06
2018-07-03T10:19:00.307Z,30.03
2018-07-03T10:21:29.733Z,29.90
2018-07-03T10:23:59.546Z,29.73
2018-07-03T10:26:28.871Z,30.00
2018-07-03T10:28:58.723Z,30.39
2018-07-03T10:31:28.135Z,30.37
2018-07-03T10:33:57.667Z,30.46
2018-07-03T10:36:27.172Z,30.19
2018-07-03T10:38:56.511Z,30.26
2018-07-03T10:41:25.898Z,30.24
2018-07-03T10:43:55.357Z,30.68
2018-07-03T10:46:24.840Z,30.74
2018-07-03T10:48:54.293Z,30.83
2018-07-03T10:51:23.628Z,31.10
2018-07-03T10:53:53.027Z,31.63
2018-07-03T10:56:22.958Z,31.83
2018-07-03T10:58:52.531Z,32.14
2018-07-03T11:01:21.921Z,32.08
2018-07-03T11:03:51.487Z,32.03
2018-07-03T11:06:20.804Z,31.75
2018-07-03T11:08:50.293Z,31.68
2018-07-03T11:11:19.634Z,32.02
2018-07-03T11:13:49.372Z,32.21
2018-07-03T11:16:18.817Z,32.46
2018-07-03T11:18:48.369Z,32.33
2018-07-03T11:21:17.817Z,32.16
2018-07-03T11:23:47.228Z,32.07
2018-07-03T11:26:16.619Z,32.43
2018-07-03T11:28:46.847Z,32.20
2018-07-03T11:31:16.525Z,31.59
2018-07-03T11:33:46.017Z,30.93
2018-07-03T11:36:15.099Z,30.65
2018-07-03T11:38:44.445Z,30.82
2018-07-03T11:41:13.981Z,31.22
2018-07-03T11:43:43.375Z,31.48
2018-07-03T11:46:12.928Z,31.54
2018-07-03T11:48:42.304Z,31.78
2018-07-03T11:51:11.808Z,32.11
2018-07-03T11:53:41.756Z,32.46
2018-07-03T11:56:11.223Z,32.36
2018-07-03T11:58:40.600Z,32.13
2018-07-03T12:01:09.992Z,32.15
2018-07-03T12:03:39.292Z,32.07
2018-07-03T12:06:08.677Z,32.62
2018-07-03T12:08:38.350Z,32.68
2018-07-03T12:11:07.962Z,32.95
2018-07-03T12:13:37.364Z,32.91
2018-07-03T12:16:07.163Z,33.02
2018-07-03T12:18:41.699Z,33.11
2018-07-03T12:21:11.215Z,33.39
2018-07-03T12:23:40.615Z,33.29
2018-07-03T12:26:09.977Z,33.65
2018-07-03T12:28:39.580Z,33.71
2018-07-03T12:31:09.020Z,33.51
2018-07-03T12:33:38.376Z,33.32
2018-07-03T12:36:09.459Z,32.85
2018-07-03T12:38:38.850Z,32.44
2018-07-03T12:41:08.436Z,31.86
2018-07-03T12:43:37.901Z,31.76
2018-07-03T12:46:07.647Z,31.33
2018-07-03T12:48:37.020Z,31.35
2018-07-03T12:51:06.451Z,31.44
2018-07-03T12:53:35.895Z,31.51
2018-07-03T12:56:05.381Z,31.46
2018-07-03T12:58:34.883Z,31.49
2018-07-03T13:01:04.299Z,31.59
2018-07-03T13:03:33.861Z,31.74
2018-07-03T13:06:03.167Z,31.94
2018-07-03T13:08:32.495Z,32.12
2018-07-03T13:11:01.836Z,32.24
2018-07-03T13:13:31.267Z,32.24
2018-07-03T13:16:00.584Z,32.53
2018-07-03T13:18:29.894Z,32.61
2018-07-03T13:20:59.506Z,32.50
2018-07-03T13:23:28.871Z,32.51
2018-07-03T13:25:58.272Z,32.26
2018-07-03T13:28:27.644Z,32.43
2018-07-03T13:30:57.206Z,32.69
2018-07-03T13:33:26.518Z,32.49
2018-07-03T13:35:55.856Z,32.38
2018-07-03T13:38:26.040Z,31.98
2018-07-03T13:40:55.389Z,32.07
2018-07-03T13:43:25.022Z,32.30
2018-07-03T13:45:54.312Z,32.24
2018-07-03T13:48:23.708Z,31.87
2018-07-03T13:50:52.949Z,32.02
2018-07-03T13:53:22.361Z,31.57
2018-07-03T13:55:51.723Z,31.72
2018-07-03T13:58:21.141Z,31.94
2018-07-03T14:00:50.496Z,31.98
2018-07-03T14:03:19.880Z,32.04
2018-07-03T14:05:49.847Z,31.74
2018-07-03T14:08:19.220Z,31.93
2018-07-03T14:10:48.589Z,31.93
2018-07-03T14:13:17.935Z,31.42
2018-07-03T14:15:47.307Z,31.38
2018-07-03T14:18:20.787Z,31.58
2018-07-03T14:20:50.118Z,31.73
2018-07-03T14:23:21.596Z,31.51
2018-07-03T14:25:51.014Z,31.46
2018-07-03T14:28:20.319Z,31.51
2018-07-03T14:30:49.663Z,31.66
2018-07-03T14:33:18.998Z,31.42
2018-07-03T14:35:48.338Z,31.28
2018-07-03T14:38:17.693Z,31.29
2018-07-03T14:40:47.090Z,31.19
2018-07-03T14:43:16.377Z,31.37
2018-07-03T14:45:46.010Z,31.38
2018-07-03T14:48:15.333Z,31.41
2018-07-03T14:50:44.761Z,31.18
2018-07-03T14:53:14.046Z,31.06
2018-07-03T14:55:43.316Z,31.01
2018-07-03T14:58:12.583Z,31.21
2018-07-03T15:00:41.959Z,31.16
2018-07-03T15:03:11.381Z,30.98
2018-07-03T15:05:40.706Z,30.89
2018-07-03T15:08:10.478Z,30.77
2018-07-03T15:10:39.863Z,30.88
2018-07-03T15:13:09.198Z,31.00
2018-07-03T15:15:38.526Z,31.18
2018-07-03T15:18:11.334Z,31.21
2018-07-03T15:20:40.807Z,31.04
2018-07-03T15:23:10.266Z,31.11
2018-07-03T15:25:39.636Z,31.04
2018-07-03T15:28:09.302Z,30.95
2018-07-03T15:30:38.939Z,30.82
2018-07-03T15:33:08.347Z,30.86
2018-07-03T15:35:37.764Z,30.91
2018-07-03T15:38:07.126Z,30.73
2018-07-03T15:40:36.495Z,30.66
2018-07-03T15:43:05.618Z,30.70
2018-07-03T15:45:34.997Z,30.87
2018-07-03T15:48:04.425Z,30.73
2018-07-03T15:50:34.001Z,30.60
2018-07-03T15:53:03.513Z,30.62
2018-07-03T15:55:33.073Z,30.58
2018-07-03T15:58:02.414Z,30.34
2018-07-03T16:00:31.773Z,29.78
2018-07-03T16:03:18.050Z,29.84
2018-07-03T16:06:08.968Z,29.97
2018-07-03T16:09:17.451Z,30.24
2018-07-03T16:11:46.839Z,29.93
2018-07-03T16:14:16.212Z,30.14
2018-07-03T16:16:45.536Z,30.08
2018-07-03T16:19:20.111Z,30.27
2018-07-03T16:21:49.494Z,29.93
2018-07-03T16:24:18.844Z,30.07
2018-07-03T16:26:48.405Z,29.94
2018-07-03T16:29:18.234Z,30.15
2018-07-03T16:31:47.888Z,30.01
2018-07-03T16:34:17.268Z,29.90
2018-07-03T16:36:46.716Z,29.63
2018-07-03T16:39:16.166Z,29.45
2018-07-03T16:41:45.590Z,29.37
2018-07-03T16:44:14.967Z,29.19
2018-07-03T16:46:44.498Z,29.50
2018-07-03T16:49:13.878Z,29.57
2018-07-03T16:51:43.651Z,29.50
2018-07-03T16:54:13.048Z,29.49
2018-07-03T16:56:42.552Z,29.55
2018-07-03T16:59:12.056Z,29.47
2018-07-03T17:01:41.390Z,29.36
2018-07-03T17:04:10.793Z,29.38
2018-07-03T17:06:39.964Z,29.43
2018-07-03T17:09:11.519Z,29.45
2018-07-03T17:11:41.224Z,29.15
2018-07-03T17:14:11.669Z,28.92
2018-07-03T17:16:42.034Z,28.93
2018-07-03T17:19:16.967Z,28.97
2018-07-03T17:21:46.357Z,29.09
2018-07-03T17:24:15.861Z,29.06
2018-07-03T17:26:45.521Z,28.70
2018-07-03T17:29:14.980Z,28.52
2018-07-03T17:31:44.354Z,28.36
2018-07-03T17:34:13.821Z,28.37
2018-07-03T17:36:43.249Z,28.35
2018-07-03T17:39:14.688Z,28.10
2018-07-03T17:42:00.912Z,28.28
2018-07-03T17:45:45.768Z,28.37
2018-07-03T17:48:16.108Z,28.41
2018-07-03T17:50:45.433Z,28.38
2018-07-03T17:53:14.800Z,28.21
2018-07-03T17:55:44.174Z,28.25
2018-07-03T17:58:13.522Z,27.93
2018-07-03T18:00:43.060Z,27.99
2018-07-03T18:03:12.523Z,27.92
2018-07-03T18:05:41.799Z,27.89
2018-07-03T18:08:11.675Z,27.76
2018-07-03T18:10:41.072Z,27.74
2018-07-03T18:13:10.398Z,27.77
2018-07-03T18:15:39.731Z,28.02
2018-07-03T18:18:09.096Z,27.85
2018-07-03T18:20:38.423Z,27.63
2018-07-03T18:23:07.836Z,27.50
2018-07-03T18:25:37.169Z,27.15
2018-07-03T18:31:17.074Z,27.10
2018-07-03T18:33:47.613Z,27.13
2018-07-03T18:36:16.790Z,27.15
2018-07-03T18:38:46.162Z,26.91
2018-07-03T18:41:15.504Z,26.86
2018-07-03T18:43:44.928Z,26.77
2018-07-03T18:46:14.072Z,26.66
2018-07-03T18:48:43.666Z,26.57
2018-07-03T18:51:13.479Z,26.43
2018-07-03T18:53:43.160Z,26.26
2018-07-03T18:56:12.718Z,26.34
2018-07-03T18:58:42.142Z,26.42
2018-07-03T19:01:11.606Z,26.35
2018-07-03T19:03:42.223Z,26.21
2018-07-03T19:06:12.278Z,26.15
2018-07-03T19:08:41.808Z,25.91
2018-07-03T19:11:11.496Z,25.82
2018-07-03T19:13:41.552Z,25.79
2018-07-03T19:16:11.367Z,25.69
2018-07-03T19:18:40.795Z,25.76
2018-07-03T19:21:10.387Z,25.66
2018-07-03T19:23:40.433Z,25.57
2018-07-03T19:26:11.147Z,25.57
2018-07-03T19:28:41.868Z,25.34
2018-07-03T19:31:11.939Z,25.27
2018-07-03T19:33:43.362Z,25.23
2018-07-03T19:36:12.998Z,25.10
2018-07-03T19:38:42.827Z,24.77
2018-07-03T19:41:12.217Z,24.71
2018-07-03T19:43:43.696Z,24.68
2018-07-03T19:46:15.444Z,24.52
2018-07-03T19:48:50.568Z,24.59
2018-07-03T19:51:20.656Z,24.57
2018-07-03T19:53:50.125Z,24.40
2018-07-03T19:56:19.462Z,24.27
2018-07-03T19:58:49.143Z,24.28
2018-07-03T20:01:18.568Z,24.26
2018-07-03T20:03:48.015Z,24.08
2018-07-03T20:06:17.495Z,24.05
2018-07-03T20:08:46.953Z,24.06
2018-07-03T20:11:16.434Z,23.93
2018-07-03T20:13:46.179Z,23.85
2018-07-03T20:16:15.760Z,23.81
2018-07-03T20:18:45.257Z,23.69
2018-07-03T20:21:14.766Z,23.46
2018-07-03T20:23:44.155Z,23.35
2018-07-03T20:26:14.553Z,23.33
2018-07-03T20:28:44.085Z,23.43
2018-07-03T20:31:13.862Z,23.39
2018-07-03T20:33:43.726Z,23.31
2018-07-03T20:36:13.246Z,23.27
2018-07-03T20:38:42.779Z,23.20
2018-07-03T20:41:12.179Z,23.04
2018-07-03T20:43:42.581Z,23.11
2018-07-03T20:46:12.115Z,22.98
2018-07-03T20:48:41.504Z,22.96
2018-07-03T20:51:11.014Z,22.91
2018-07-03T20:53:40.670Z,22.85
2018-07-03T20:56:10.409Z,22.82
2018-07-03T20:58:40.440Z,22.83
2018-07-03T21:01:09.776Z,22.77
2018-07-03T21:03:39.121Z,22.64
2018-07-03T21:06:08.645Z,22.14
2018-07-03T21:08:38.031Z,22.30
2018-07-03T21:11:07.819Z,22.18
2018-07-03T21:13:37.525Z,22.11
2018-07-03T21:16:06.854Z,22.03
2018-07-03T21:18:36.181Z,22.00
2018-07-03T21:21:06.052Z,22.08
2018-07-03T21:23:35.528Z,22.13
2018-07-03T21:26:05.470Z,21.99
2018-07-03T21:28:34.830Z,21.86
2018-07-03T21:31:04.370Z,21.79
2018-07-03T21:33:33.692Z,21.42
2018-07-03T21:36:03.068Z,21.39
2018-07-03T21:38:32.517Z,21.48
2018-07-03T21:41:01.861Z,21.56
2018-07-03T21:43:31.263Z,21.44
2018-07-03T21:46:00.641Z,21.21
2018-07-03T21:48:30.044Z,21.15
2018-07-03T21:50:59.649Z,21.24
2018-07-03T21:53:29.469Z,21.23
2018-07-03T21:55:58.813Z,21.12
2018-07-03T21:58:28.284Z,21.14
2018-07-03T22:00:57.781Z,21.09
2018-07-03T22:03:27.138Z,21.13
2018-07-03T22:05:57.021Z,21.09
2018-07-03T22:08:26.560Z,20.98
2018-07-03T22:10:56.184Z,20.85
2018-07-03T22:13:25.645Z,20.91
2018-07-03T22:15:54.999Z,20.70
2018-07-03T22:18:24.296Z,20.67
2018-07-03T22:20:53.741Z,20.70
2018-07-03T22:23:23.072Z,20.58
2018-07-03T22:25:52.463Z,20.54
2018-07-03T22:28:22.270Z,20.51
2018-07-03T22:30:51.825Z,20.32
2018-07-03T22:33:21.120Z,20.27
2018-07-03T22:35:50.460Z,20.28
2018-07-03T22:38:19.794Z,20.08
2018-07-03T22:40:49.094Z,20.09
2018-07-03T22:43:18.455Z,20.06
2018-07-03T22:45:47.709Z,20.16
2018-07-03T22:48:17.069Z,20.14
2018-07-03T22:50:46.717Z,19.96
2018-07-03T22:53:16.052Z,19.87
2018-07-03T22:55:45.414Z,19.98
2018-07-03T22:58:14.722Z,19.95
2018-07-03T23:00:44.027Z,19.80
2018-07-03T23:03:13.346Z,19.90
2018-07-03T23:05:42.648Z,19.73
2018-07-03T23:08:11.929Z,19.70
2018-07-03T23:10:41.265Z,19.54
2018-07-03T23:13:10.919Z,19.79
2018-07-03T23:15:40.306Z,19.65
2018-07-03T23:18:09.672Z,19.58
2018-07-03T23:20:38.978Z,19.50
2018-07-03T23:23:08.279Z,19.62
2018-07-03T23:25:37.612Z,19.58
2018-07-03T23:28:07.051Z,19.64
2018-07-03T23:30:36.350Z,19.74
2018-07-03T23:33:05.754Z,19.55
2018-07-03T23:35:35.200Z,19.51
2018-07-03T23:38:04.602Z,19.51
2018-07-03T23:40:34.006Z,19.39
2018-07-03T23:43:03.347Z,19.45
2018-07-03T23:45:45.878Z,19.48
2018-07-03T23:48:32.755Z,19.31
2018-07-03T23:51:20.363Z,19.03
2018-07-03T23:54:06.920Z,19.03
2018-07-03T23:56:53.190Z,19.03
2018-07-03T23:59:39.357Z,19.13
